createdAt,value
2019-05-02T00:01:33.115Z,10.23
2019-05-02T00:04:05.277Z,9.07
2019-05-02T00:06:42.851Z,9.67
2019-05-02T00:09:12.047Z,10.17
2019-05-02T00:11:44.138Z,10.83
2019-05-02T00:14:16.109Z,10.67
2019-05-02T00:16:49.419Z,9.50
2019-05-02T00:19:22.042Z,9.93
2019-05-02T00:21:54.057Z,10.20
2019-05-02T00:24:26.037Z,10.57
2019-05-02T00:27:01.307Z,10.30
2019-05-02T00:29:31.883Z,11.03
2019-05-02T00:32:03.933Z,9.97
2019-05-02T00:34:35.873Z,9.53
2019-05-02T00:37:07.963Z,11.00
2019-05-02T00:39:39.893Z,9.97
2019-05-02T00:42:13.061Z,10.13
2019-05-02T00:44:46.982Z,9.50
2019-05-02T00:47:33.206Z,9.07
2019-05-02T00:50:06.278Z,10.33
2019-05-02T00:52:39.708Z,10.27
2019-05-02T00:55:11.799Z,11.23
2019-05-02T00:57:43.747Z,10.80
2019-05-02T01:00:18.556Z,10.77
2019-05-02T01:02:55.092Z,10.67
2019-05-02T01:05:27.032Z,9.80
2019-05-02T01:08:01.032Z,11.63
2019-05-02T01:10:32.877Z,11.17
2019-05-02T01:13:04.866Z,11.80
2019-05-02T01:15:39.172Z,10.93
2019-05-02T01:18:10.696Z,11.47
2019-05-02T01:20:42.657Z,11.47
2019-05-02T01:23:14.639Z,10.90
2019-05-02T01:25:47.486Z,11.07
2019-05-02T01:28:38.922Z,11.37
2019-05-02T01:31:23.717Z,12.30
2019-05-02T01:34:17.875Z,11.60
2019-05-02T01:37:06.453Z,10.90
2019-05-02T01:39:42.767Z,11.13
2019-05-02T01:42:12.256Z,10.47
2019-05-02T01:44:44.234Z,11.40
2019-05-02T01:47:16.227Z,11.33
2019-05-02T01:49:51.954Z,10.93
2019-05-02T01:52:23.645Z,10.33
2019-05-02T01:54:55.924Z,10.53
2019-05-02T01:57:27.851Z,11.33
2019-05-02T02:00:04.271Z,11.30
2019-05-02T02:02:34.124Z,10.70
2019-05-02T02:05:06.243Z,11.20
2019-05-02T02:07:38.201Z,11.10
2019-05-02T02:10:10.255Z,11.50
2019-05-02T02:13:02.237Z,11.93
2019-05-02T02:15:16.060Z,10.27
2019-05-02T02:17:51.490Z,10.47
2019-05-02T02:20:24.118Z,11.03
2019-05-02T02:23:27.820Z,11.00
2019-05-02T02:26:02.149Z,10.80
2019-05-02T02:28:34.097Z,11.03
2019-05-02T02:31:07.910Z,11.50
2019-05-02T02:33:41.052Z,12.13
2019-05-02T02:36:13.819Z,11.20
2019-05-02T02:38:45.753Z,11.47
2019-05-02T02:41:17.733Z,11.83
2019-05-02T02:44:17.874Z,11.23
2019-05-02T02:46:50.071Z,11.20
2019-05-02T02:49:24.392Z,12.03
2019-05-02T02:51:57.958Z,11.33
2019-05-02T02:54:29.777Z,12.67
2019-05-02T02:57:01.740Z,11.10
2019-05-02T02:59:33.667Z,10.73
2019-05-02T03:02:09.904Z,11.67
2019-05-02T03:04:44.120Z,11.37
2019-05-02T03:07:24.494Z,10.97
2019-05-02T03:09:47.226Z,11.23
2019-05-02T03:12:51.163Z,11.77
2019-05-02T03:15:28.187Z,11.53
2019-05-02T03:17:59.874Z,12.00
2019-05-02T03:20:40.157Z,11.63
2019-05-02T03:23:06.419Z,11.53
2019-05-02T03:25:50.006Z,10.57
2019-05-02T03:28:18.547Z,11.77
2019-05-02T03:30:46.192Z,11.93
2019-05-02T03:33:18.146Z,11.67
2019-05-02T03:35:50.155Z,11.40
2019-05-02T03:38:31.092Z,11.83
2019-05-02T03:40:56.033Z,12.00
2019-05-02T03:43:27.981Z,11.90
2019-05-02T03:45:59.919Z,12.20
2019-05-02T03:48:31.903Z,11.87
2019-05-02T03:51:05.209Z,11.10
2019-05-02T03:53:37.792Z,12.43
2019-05-02T03:56:12.044Z,11.17
2019-05-02T03:58:48.746Z,11.90
2019-05-02T04:01:18.226Z,11.07
2019-05-02T04:03:50.712Z,10.63
2019-05-02T04:06:23.656Z,10.77
2019-05-02T04:08:59.764Z,11.27
2019-05-02T04:11:38.293Z,10.73
2019-05-02T04:14:14.711Z,11.07
2019-05-02T04:16:37.718Z,10.77
2019-05-02T04:19:09.722Z,11.43
2019-05-02T04:21:41.692Z,11.30
2019-05-02T04:24:16.073Z,12.00
2019-05-02T04:26:53.682Z,11.00
2019-05-02T04:29:24.493Z,11.13
2019-05-02T04:31:56.085Z,11.40
2019-05-02T04:34:28.046Z,12.13
2019-05-02T04:37:03.541Z,10.87
2019-05-02T04:39:33.874Z,10.77
2019-05-02T04:42:15.948Z,11.03
2019-05-02T04:44:52.761Z,11.17
2019-05-02T04:47:17.392Z,11.47
2019-05-02T04:49:51.570Z,12.13
2019-05-02T04:52:21.493Z,10.93
2019-05-02T04:55:08.162Z,12.63
2019-05-02T04:57:36.246Z,11.53
2019-05-02T05:00:06.498Z,11.50
2019-05-02T05:02:39.292Z,11.73
2019-05-02T05:05:08.974Z,12.83
2019-05-02T05:07:46.152Z,11.50
2019-05-02T05:10:14.921Z,11.00
2019-05-02T05:12:48.009Z,11.47
2019-05-02T05:15:35.836Z,10.97
2019-05-02T05:17:53.941Z,11.97
2019-05-02T05:20:28.043Z,10.60
2019-05-02T05:22:59.765Z,10.40
2019-05-02T05:25:37.957Z,10.90
2019-05-02T05:28:10.041Z,11.67
2019-05-02T05:30:45.354Z,10.37
2019-05-02T05:33:18.169Z,10.10
2019-05-02T05:35:52.581Z,10.13
2019-05-02T05:38:28.696Z,9.77
2019-05-02T05:40:58.037Z,9.70
2019-05-02T05:43:30.202Z,9.57
2019-05-02T05:46:12.296Z,10.30
2019-05-02T05:48:37.188Z,9.57
2019-05-02T05:51:11.872Z,9.60
2019-05-02T05:53:43.739Z,9.93
2019-05-02T05:56:17.851Z,9.70
2019-05-02T05:58:52.543Z,10.27
2019-05-02T06:01:26.015Z,9.77
2019-05-02T06:03:58.053Z,9.63
2019-05-02T06:06:30.443Z,10.43
2019-05-02T06:09:03.619Z,10.07
2019-05-02T06:11:35.700Z,10.13
2019-05-02T06:14:08.549Z,9.93
2019-05-02T06:16:40.485Z,9.80
2019-05-02T06:19:13.005Z,9.87
2019-05-02T06:21:46.750Z,9.67
2019-05-02T06:24:18.780Z,10.10
2019-05-02T06:26:51.780Z,10.33
2019-05-02T06:29:23.895Z,11.07
2019-05-02T06:32:00.604Z,10.20
2019-05-02T06:34:32.574Z,10.78
2019-05-02T06:37:08.132Z,9.37
2019-05-02T06:39:38.430Z,10.60
2019-05-02T06:42:10.395Z,10.50
2019-05-02T06:44:42.356Z,10.93
2019-05-02T06:47:14.305Z,10.60
2019-05-02T06:49:46.281Z,11.73
2019-05-02T06:52:18.227Z,11.45
2019-05-02T06:54:54.136Z,10.70
2019-05-02T06:57:25.803Z,11.80
2019-05-02T06:59:57.906Z,9.85
2019-05-02T07:02:33.586Z,10.58
2019-05-02T07:05:04.929Z,10.50
2019-05-02T07:07:37.419Z,10.80
2019-05-02T07:10:09.926Z,10.88
2019-05-02T07:12:46.160Z,11.50
2019-05-02T07:15:53.782Z,10.10
2019-05-02T07:18:27.303Z,10.20
2019-05-02T07:20:59.346Z,10.32
2019-05-02T07:23:31.461Z,9.88
2019-05-02T07:26:03.447Z,9.95
2019-05-02T07:28:35.446Z,10.23
2019-05-02T07:31:12.170Z,10.20
2019-05-02T07:33:41.400Z,10.40
2019-05-02T07:36:13.397Z,10.23
2019-05-02T07:38:45.371Z,10.08
2019-05-02T07:41:17.355Z,10.38
2019-05-02T07:43:52.008Z,12.05
2019-05-02T07:46:24.101Z,11.53
2019-05-02T07:48:56.613Z,13.38
2019-05-02T07:51:28.787Z,12.58
2019-05-02T07:54:00.731Z,12.25
2019-05-02T07:56:32.703Z,12.95
2019-05-02T07:59:04.689Z,13.10
2019-05-02T08:01:36.724Z,12.50
2019-05-02T08:04:11.097Z,12.80
2019-05-02T08:06:44.649Z,13.40
2019-05-02T08:09:16.430Z,12.23
2019-05-02T08:11:48.428Z,12.93
2019-05-02T08:14:20.410Z,12.93
2019-05-02T08:17:04.968Z,10.98
2019-05-02T08:19:26.228Z,12.20
2019-05-02T08:21:58.248Z,12.85
2019-05-02T08:24:33.110Z,12.33
2019-05-02T08:27:39.154Z,11.85
2019-05-02T08:30:24.174Z,11.43
2019-05-02T08:32:56.198Z,12.45
2019-05-02T08:35:28.503Z,12.47
2019-05-02T08:38:00.541Z,12.80
2019-05-02T08:40:32.501Z,12.13
2019-05-02T08:43:08.967Z,11.88
2019-05-02T08:45:39.538Z,11.40
2019-05-02T08:48:11.819Z,11.88
2019-05-02T08:50:43.770Z,11.80
2019-05-02T08:53:19.878Z,11.75
2019-05-02T08:55:49.657Z,13.25
2019-05-02T08:58:21.649Z,12.80
2019-05-02T09:00:53.607Z,11.22
2019-05-02T09:03:25.571Z,11.20
2019-05-02T09:06:05.665Z,11.88
2019-05-02T09:08:32.520Z,11.63
2019-05-02T09:11:04.505Z,11.90
2019-05-02T09:13:36.439Z,12.15
2019-05-02T09:16:08.428Z,11.63
2019-05-02T09:18:50.452Z,12.30
2019-05-02T09:21:14.292Z,12.65
2019-05-02T09:23:46.254Z,12.40
2019-05-02T09:26:31.960Z,11.73
2019-05-02T09:28:56.382Z,10.38
2019-05-02T09:31:25.952Z,11.40
2019-05-02T09:33:57.910Z,10.95
2019-05-02T09:36:29.856Z,10.85
2019-05-02T09:39:02.631Z,11.03
2019-05-02T09:41:36.210Z,10.82
2019-05-02T09:44:09.098Z,11.43
2019-05-02T09:46:42.849Z,11.15
2019-05-02T09:49:16.569Z,11.05
2019-05-02T09:51:50.259Z,12.00
2019-05-02T09:54:23.246Z,11.25
2019-05-02T09:56:55.356Z,10.93
2019-05-02T09:59:33.064Z,11.22
2019-05-02T10:02:06.475Z,10.93
2019-05-02T10:04:41.478Z,10.50
2019-05-02T10:07:15.309Z,10.00
2019-05-02T10:09:46.390Z,10.38
2019-05-02T10:12:18.341Z,11.12
2019-05-02T10:14:52.620Z,11.57
2019-05-02T10:17:25.292Z,10.53
2019-05-02T10:19:57.395Z,10.60
2019-05-02T10:22:33.770Z,10.58
2019-05-02T10:25:03.828Z,10.75
2019-05-02T10:27:38.523Z,9.43
2019-05-02T10:30:14.774Z,11.18
2019-05-02T10:32:47.217Z,11.22
2019-05-02T10:35:22.781Z,9.90
2019-05-02T10:37:54.593Z,9.90
2019-05-02T10:40:26.594Z,10.63
2019-05-02T10:42:58.610Z,9.05
2019-05-02T10:45:32.102Z,11.90
2019-05-02T10:48:04.283Z,12.10
2019-05-02T10:50:42.284Z,11.08
2019-05-02T10:53:15.678Z,10.82
2019-05-02T10:55:47.813Z,11.20
2019-05-02T10:58:26.253Z,11.08
2019-05-02T11:00:53.718Z,11.63
2019-05-02T11:03:38.025Z,11.40
2019-05-02T11:06:08.646Z,10.10
2019-05-02T11:08:45.821Z,10.75
2019-05-02T11:11:15.541Z,11.68
2019-05-02T11:14:11.884Z,12.07
2019-05-02T11:17:08.751Z,11.60
2019-05-02T11:19:59.237Z,10.65
2019-05-02T11:22:32.115Z,10.80
2019-05-02T11:25:04.795Z,11.33
2019-05-02T11:27:36.749Z,11.10
2019-05-02T11:30:12.126Z,11.28
2019-05-02T11:32:44.214Z,9.90
2019-05-02T11:35:16.209Z,11.80
2019-05-02T11:37:48.178Z,12.40
2019-05-02T11:40:20.176Z,12.18
2019-05-02T11:42:52.250Z,12.37
2019-05-02T11:45:24.175Z,13.48
2019-05-02T11:48:01.684Z,12.18
2019-05-02T11:50:31.971Z,11.22
2019-05-02T11:53:09.151Z,12.53
2019-05-02T11:55:37.789Z,13.25
2019-05-02T11:58:10.657Z,14.13
2019-05-02T12:00:45.375Z,13.10
2019-05-02T12:03:42.301Z,12.90
2019-05-02T12:06:19.551Z,13.85
2019-05-02T12:08:49.443Z,12.88
2019-05-02T12:11:22.800Z,14.23
2019-05-02T12:13:57.110Z,14.23
2019-05-02T12:16:29.152Z,12.25
2019-05-02T12:19:09.493Z,11.38
2019-05-02T12:21:35.080Z,12.13
2019-05-02T12:24:07.032Z,12.55
2019-05-02T12:26:39.002Z,11.88
2019-05-02T12:29:12.230Z,12.43
2019-05-02T12:31:47.228Z,13.00
2019-05-02T12:34:18.217Z,11.85
2019-05-02T12:36:52.109Z,11.85
2019-05-02T12:39:24.130Z,12.88
2019-05-02T12:41:56.395Z,11.68
2019-05-02T12:44:28.711Z,10.75
2019-05-02T12:47:02.505Z,11.10
2019-05-02T12:49:34.640Z,10.78
2019-05-02T12:52:06.667Z,10.70
2019-05-02T12:54:38.637Z,10.18
2019-05-02T12:57:12.373Z,13.18
2019-05-02T12:59:44.545Z,11.00
2019-05-02T13:02:25.630Z,11.28
2019-05-02T13:04:57.623Z,11.73
2019-05-02T13:07:31.639Z,11.88
2019-05-02T13:10:04.033Z,12.10
2019-05-02T13:12:37.488Z,10.35
2019-05-02T13:15:09.587Z,11.65
2019-05-02T13:17:43.883Z,12.30
2019-05-02T13:20:17.386Z,11.97
2019-05-02T13:23:05.500Z,13.43
2019-05-02T13:25:37.988Z,12.18
2019-05-02T13:28:12.185Z,11.88
2019-05-02T13:31:03.321Z,12.70
2019-05-02T13:33:42.810Z,12.85
2019-05-02T13:36:39.854Z,11.25
2019-05-02T13:39:18.615Z,11.65
2019-05-02T13:41:52.188Z,10.18
2019-05-02T13:44:29.027Z,11.05
2019-05-02T13:47:02.751Z,12.00
2019-05-02T13:49:34.949Z,10.38
2019-05-02T13:52:06.908Z,11.00
2019-05-02T13:54:39.107Z,11.95
2019-05-02T13:57:12.113Z,10.50
2019-05-02T13:59:44.297Z,10.50
2019-05-02T14:02:37.723Z,11.08
2019-05-02T14:05:12.781Z,9.95
2019-05-02T14:07:53.034Z,9.65
2019-05-02T14:10:26.886Z,10.85
2019-05-02T14:12:59.500Z,9.50
2019-05-02T14:15:37.433Z,10.10
2019-05-02T14:18:09.403Z,9.73
2019-05-02T14:20:42.758Z,10.00
2019-05-02T14:23:15.059Z,10.10
2019-05-02T14:25:47.058Z,9.33
2019-05-02T14:28:19.090Z,10.15
2019-05-02T14:30:52.520Z,9.65
2019-05-02T14:33:26.477Z,9.60
2019-05-02T14:35:58.500Z,8.80
2019-05-02T14:38:32.106Z,9.83
2019-05-02T14:41:09.668Z,9.98
2019-05-02T14:43:56.608Z,9.83
2019-05-02T14:46:33.718Z,9.55
2019-05-02T14:49:02.891Z,9.18
2019-05-02T14:51:36.699Z,9.08
2019-05-02T14:54:08.847Z,9.83
2019-05-02T14:56:54.892Z,9.10
2019-05-02T14:59:28.836Z,9.55
2019-05-02T15:02:07.499Z,8.80
2019-05-02T15:04:42.836Z,8.38
2019-05-02T15:07:12.941Z,7.87
2019-05-02T15:09:45.191Z,8.40
2019-05-02T15:12:19.037Z,8.40
2019-05-02T15:14:57.509Z,8.23
2019-05-02T15:17:28.158Z,8.13
2019-05-02T15:19:58.819Z,8.55
2019-05-02T15:22:33.164Z,9.30
2019-05-02T15:25:07.865Z,8.80
2019-05-02T15:27:42.533Z,8.38
2019-05-02T15:30:15.968Z,9.70
2019-05-02T15:33:17.117Z,9.23
2019-05-02T15:35:57.174Z,9.65
2019-05-02T15:38:28.353Z,9.55
2019-05-02T15:41:06.960Z,8.50
2019-05-02T15:43:34.381Z,9.85
2019-05-02T15:46:06.345Z,9.05
2019-05-02T15:48:38.334Z,9.10
2019-05-02T15:51:12.239Z,9.95
2019-05-02T15:54:10.033Z,9.85
2019-05-02T15:56:59.931Z,11.38
2019-05-02T15:59:32.590Z,11.18
2019-05-02T16:02:12.916Z,11.28
2019-05-02T16:04:45.109Z,11.20
2019-05-02T16:07:17.110Z,11.55
2019-05-02T16:09:51.634Z,11.28
2019-05-02T16:12:27.019Z,11.93
2019-05-02T16:14:56.812Z,11.90
2019-05-02T16:17:28.828Z,11.53
2019-05-02T16:20:10.788Z,9.88
2019-05-02T16:22:46.227Z,9.50
2019-05-02T16:25:19.992Z,10.60
2019-05-02T16:27:50.337Z,10.70
2019-05-02T16:30:23.149Z,10.70
2019-05-02T16:32:59.362Z,11.10
2019-05-02T16:35:32.938Z,10.13
2019-05-02T16:38:04.953Z,9.60
2019-05-02T16:40:37.155Z,10.97
2019-05-02T16:43:09.182Z,11.73
2019-05-02T16:45:41.742Z,10.20
2019-05-02T16:48:15.125Z,11.47
2019-05-02T16:50:47.182Z,11.87
2019-05-02T16:53:22.698Z,12.47
2019-05-02T16:55:53.681Z,12.30
2019-05-02T16:58:25.929Z,12.47
2019-05-02T17:00:57.943Z,13.17
2019-05-02T17:03:31.607Z,12.33
2019-05-02T17:06:03.922Z,13.20
2019-05-02T17:08:49.419Z,11.93
2019-05-02T17:11:31.801Z,12.03
2019-05-02T17:14:02.329Z,11.73
2019-05-02T17:16:34.478Z,13.07
2019-05-02T17:19:06.502Z,12.50
2019-05-02T17:21:53.203Z,11.73
2019-05-02T17:24:12.721Z,11.57
2019-05-02T17:26:44.899Z,12.37
2019-05-02T17:29:21.362Z,13.40
2019-05-02T17:31:57.363Z,14.43
2019-05-02T17:34:30.493Z,14.03
2019-05-02T17:36:59.246Z,13.73
2019-05-02T17:39:32.575Z,14.63
2019-05-02T17:42:04.653Z,13.90
2019-05-02T17:44:36.678Z,13.10
2019-05-02T17:47:09.707Z,13.53
2019-05-02T17:49:42.327Z,13.93
2019-05-02T17:52:32.680Z,12.83
2019-05-02T17:55:04.862Z,13.43
2019-05-02T17:57:36.878Z,14.40
2019-05-02T18:00:16.744Z,14.13
2019-05-02T18:02:51.713Z,14.83
2019-05-02T18:05:26.573Z,13.50
2019-05-02T18:07:57.143Z,15.50
2019-05-02T18:10:29.174Z,15.57
2019-05-02T18:13:02.660Z,15.17
2019-05-02T18:15:36.259Z,14.80
2019-05-02T18:18:08.468Z,16.23
2019-05-02T18:20:44.797Z,13.73
2019-05-02T18:23:18.779Z,14.87
2019-05-02T18:25:48.343Z,15.07
2019-05-02T18:28:24.599Z,15.17
2019-05-02T18:30:57.117Z,17.50
2019-05-02T18:33:28.443Z,16.27
2019-05-02T18:36:01.942Z,14.93
2019-05-02T18:38:34.077Z,14.17
2019-05-02T18:41:07.755Z,15.37
2019-05-02T18:43:43.533Z,14.30
2019-05-02T18:46:14.009Z,14.63
2019-05-02T18:48:49.121Z,13.40
2019-05-02T18:51:21.850Z,12.87
2019-05-02T18:53:58.042Z,14.43
2019-05-02T18:56:27.922Z,16.20
2019-05-02T18:59:00.005Z,14.97
2019-05-02T19:01:32.180Z,15.70
2019-05-02T19:04:04.278Z,16.20
2019-05-02T19:06:36.569Z,14.60
2019-05-02T19:09:12.564Z,15.17
2019-05-02T19:11:44.522Z,14.00
2019-05-02T19:14:22.284Z,13.43
2019-05-02T19:16:52.132Z,14.07
2019-05-02T19:19:27.389Z,13.57
2019-05-02T19:21:58.322Z,13.73
2019-05-02T19:24:34.900Z,14.03
2019-05-02T19:27:04.356Z,13.97
2019-05-02T19:29:36.434Z,15.83
2019-05-02T19:32:12.059Z,18.17
2019-05-02T19:34:44.120Z,21.77
2019-05-02T19:37:16.244Z,18.33
2019-05-02T19:39:48.973Z,14.97
2019-05-02T19:42:22.532Z,13.73
2019-05-02T19:44:55.082Z,13.57
2019-05-02T19:47:27.543Z,14.03
2019-05-02T19:49:59.617Z,13.60
2019-05-02T19:52:39.200Z,13.60
2019-05-02T19:55:05.909Z,14.80
2019-05-02T19:57:38.027Z,14.23
2019-05-02T20:00:12.073Z,14.10
2019-05-02T20:02:43.945Z,15.13
2019-05-02T20:05:21.339Z,14.13
2019-05-02T20:07:51.967Z,15.17
2019-05-02T20:10:24.180Z,14.37
2019-05-02T20:12:56.333Z,13.90
2019-05-02T20:15:32.675Z,14.60
2019-05-02T20:18:05.528Z,15.60
2019-05-02T20:20:46.103Z,16.17
2019-05-02T20:23:23.722Z,16.30
2019-05-02T20:25:52.399Z,16.40
2019-05-02T20:28:24.477Z,15.70
2019-05-02T20:30:56.459Z,15.00
2019-05-02T20:33:28.645Z,15.47
2019-05-02T20:36:01.831Z,14.90
2019-05-02T20:38:34.046Z,14.80
2019-05-02T20:41:06.308Z,13.73
2019-05-02T20:43:38.375Z,14.50
2019-05-02T20:46:12.167Z,15.87
2019-05-02T20:48:44.331Z,16.10
2019-05-02T20:51:16.360Z,16.67
2019-05-02T20:53:48.414Z,16.90
2019-05-02T20:56:20.431Z,17.27
2019-05-02T20:58:52.751Z,17.80
2019-05-02T21:01:24.868Z,17.13
2019-05-02T21:03:56.952Z,22.07
2019-05-02T21:06:48.531Z,23.20
2019-05-02T21:09:33.085Z,24.50
2019-05-02T21:12:06.191Z,26.50
2019-05-02T21:14:38.211Z,26.93
2019-05-02T21:17:10.262Z,25.23
2019-05-02T21:19:42.245Z,26.10
2019-05-02T21:22:19.404Z,28.00
2019-05-02T21:24:52.905Z,28.13
2019-05-02T21:27:25.096Z,30.43
2019-05-02T21:29:57.166Z,28.40
2019-05-02T21:32:29.101Z,29.47
2019-05-02T21:35:02.755Z,31.87
2019-05-02T21:37:35.044Z,29.53
2019-05-02T21:40:07.134Z,30.90
2019-05-02T21:42:39.115Z,29.97
2019-05-02T21:45:13.025Z,31.97
2019-05-02T21:47:45.169Z,31.57
2019-05-02T21:50:27.400Z,33.60
2019-05-02T21:53:18.985Z,30.20
2019-05-02T21:55:59.712Z,29.70
2019-05-02T21:58:32.348Z,30.97
2019-05-02T22:01:09.804Z,32.77
2019-05-02T22:03:41.797Z,33.23
2019-05-02T22:06:13.812Z,33.23
2019-05-02T22:08:45.760Z,33.43
2019-05-02T22:11:17.762Z,32.77
2019-05-02T22:13:51.611Z,33.10
2019-05-02T22:16:23.624Z,33.40
2019-05-02T22:18:55.705Z,34.93
2019-05-02T22:21:27.703Z,33.87
2019-05-02T22:24:10.912Z,35.67
2019-05-02T22:26:33.525Z,35.13
2019-05-02T22:29:05.605Z,33.83
2019-05-02T22:31:37.579Z,35.10
2019-05-02T22:34:09.556Z,36.33
2019-05-02T22:36:41.890Z,35.63
2019-05-02T22:39:51.733Z,37.37
2019-05-02T22:42:23.722Z,35.27
2019-05-02T22:44:55.672Z,36.67
2019-05-02T22:47:27.662Z,36.87
2019-05-02T22:49:59.639Z,33.30
2019-05-02T22:52:32.276Z,38.20
2019-05-02T22:55:04.454Z,34.40
2019-05-02T22:57:36.468Z,34.27
2019-05-02T23:00:08.540Z,33.73
2019-05-02T23:02:41.915Z,36.23
2019-05-02T23:05:13.934Z,36.60
2019-05-02T23:07:45.910Z,33.07
2019-05-02T23:10:17.873Z,35.93
2019-05-02T23:12:51.680Z,32.50
2019-05-02T23:15:23.685Z,33.97
2019-05-02T23:17:55.633Z,35.70
2019-05-02T23:20:27.595Z,35.43
2019-05-02T23:22:59.598Z,35.97
2019-05-02T23:25:51.829Z,32.73
2019-05-02T23:28:24.443Z,37.67
2019-05-02T23:30:56.382Z,36.67
2019-05-02T23:33:47.975Z,35.57
2019-05-02T23:36:19.922Z,35.73
2019-05-02T23:38:52.237Z,34.77
2019-05-02T23:41:24.358Z,34.43
2019-05-02T23:43:56.327Z,34.43
2019-05-02T23:46:28.293Z,34.80
2019-05-02T23:49:01.990Z,34.60
2019-05-02T23:51:34.157Z,35.40
2019-05-02T23:54:06.143Z,34.37
2019-05-02T23:56:38.073Z,35.30
2019-05-02T23:59:11.839Z,35.20
